sensor_id;sensor_type;location;lat;lon;timestamp;P1;durP1;ratioP1;P2;durP2;ratioP2
73863;SDS011;62200;52.062;5.292;2022-08-19T00:02:11;6.50;;;3.75;;
73863;SDS011;62200;52.062;5.292;2022-08-19T00:04:36;6.20;;;4.07;;
73863;SDS011;62200;52.062;5.292;2022-08-19T00:07:02;6.03;;;3.58;;
73863;SDS011;62200;52.062;5.292;2022-08-19T00:09:29;5.47;;;4.10;;
73863;SDS011;62200;52.062;5.292;2022-08-19T00:11:55;7.32;;;3.40;;
73863;SDS011;62200;52.062;5.292;2022-08-19T00:14:21;7.07;;;3.85;;
73863;SDS011;62200;52.062;5.292;2022-08-19T00:16:48;5.32;;;3.50;;
73863;SDS011;62200;52.062;5.292;2022-08-19T00:19:18;7.95;;;3.92;;
73863;SDS011;62200;52.062;5.292;2022-08-19T00:21:44;4.85;;;3.65;;
73863;SDS011;62200;52.062;5.292;2022-08-19T00:24:10;4.90;;;3.53;;
73863;SDS011;62200;52.062;5.292;2022-08-19T00:26:38;4.93;;;3.88;;
73863;SDS011;62200;52.062;5.292;2022-08-19T00:29:04;7.53;;;3.80;;
73863;SDS011;62200;52.062;5.292;2022-08-19T00:31:31;5.88;;;4.20;;
73863;SDS011;62200;52.062;5.292;2022-08-19T00:33:56;4.53;;;3.58;;
73863;SDS011;62200;52.062;5.292;2022-08-19T00:36:22;6.20;;;3.80;;
73863;SDS011;62200;52.062;5.292;2022-08-19T00:38:48;6.07;;;3.65;;
73863;SDS011;62200;52.062;5.292;2022-08-19T00:41:15;4.50;;;3.30;;
73863;SDS011;62200;52.062;5.292;2022-08-19T00:43:56;6.05;;;3.65;;
73863;SDS011;62200;52.062;5.292;2022-08-19T00:46:28;4.93;;;3.35;;
73863;SDS011;62200;52.062;5.292;2022-08-19T00:48:54;6.75;;;3.40;;
73863;SDS011;62200;52.062;5.292;2022-08-19T00:51:21;6.50;;;3.50;;
73863;SDS011;62200;52.062;5.292;2022-08-19T00:53:48;5.88;;;3.05;;
73863;SDS011;62200;52.062;5.292;2022-08-19T00:56:13;5.03;;;3.63;;
73863;SDS011;62200;52.062;5.292;2022-08-19T00:58:40;5.88;;;3.65;;
73863;SDS011;62200;52.062;5.292;2022-08-19T01:01:06;5.47;;;3.42;;
73863;SDS011;62200;52.062;5.292;2022-08-19T01:03:32;5.88;;;3.58;;
73863;SDS011;62200;52.062;5.292;2022-08-19T01:05:58;5.10;;;3.60;;
73863;SDS011;62200;52.062;5.292;2022-08-19T01:08:25;6.50;;;3.63;;
73863;SDS011;62200;52.062;5.292;2022-08-19T01:10:54;4.50;;;3.28;;
73863;SDS011;62200;52.062;5.292;2022-08-19T01:13:23;4.90;;;3.20;;
73863;SDS011;62200;52.062;5.292;2022-08-19T01:15:56;6.80;;;3.33;;
73863;SDS011;62200;52.062;5.292;2022-08-19T01:18:25;5.65;;;3.50;;
73863;SDS011;62200;52.062;5.292;2022-08-19T01:20:53;6.00;;;3.15;;
73863;SDS011;62200;52.062;5.292;2022-08-19T01:23:21;5.72;;;3.03;;
73863;SDS011;62200;52.062;5.292;2022-08-19T01:25:50;5.00;;;3.45;;
73863;SDS011;62200;52.062;5.292;2022-08-19T01:28:18;6.03;;;3.50;;
73863;SDS011;62200;52.062;5.292;2022-08-19T01:30:46;5.30;;;3.00;;
73863;SDS011;62200;52.062;5.292;2022-08-19T01:33:12;4.40;;;3.35;;
73863;SDS011;62200;52.062;5.292;2022-08-19T01:35:38;4.72;;;3.55;;
73863;SDS011;62200;52.062;5.292;2022-08-19T01:38:06;5.13;;;3.33;;
73863;SDS011;62200;52.062;5.292;2022-08-19T01:40:34;4.60;;;3.20;;
73863;SDS011;62200;52.062;5.292;2022-08-19T01:43:03;4.68;;;3.58;;
73863;SDS011;62200;52.062;5.292;2022-08-19T01:45:32;4.95;;;3.30;;
73863;SDS011;62200;52.062;5.292;2022-08-19T01:47:59;4.72;;;3.28;;
73863;SDS011;62200;52.062;5.292;2022-08-19T01:50:25;6.75;;;3.90;;
73863;SDS011;62200;52.062;5.292;2022-08-19T01:52:50;4.47;;;3.47;;
73863;SDS011;62200;52.062;5.292;2022-08-19T01:55:17;6.15;;;3.55;;
73863;SDS011;62200;52.062;5.292;2022-08-19T01:57:46;5.68;;;4.03;;
73863;SDS011;62200;52.062;5.292;2022-08-19T02:00:16;5.25;;;3.20;;
73863;SDS011;62200;52.062;5.292;2022-08-19T02:02:43;9.55;;;4.53;;
73863;SDS011;62200;52.062;5.292;2022-08-19T02:05:09;4.80;;;3.40;;
73863;SDS011;62200;52.062;5.292;2022-08-19T02:07:35;5.57;;;3.15;;
73863;SDS011;62200;52.062;5.292;2022-08-19T02:10:05;4.85;;;3.70;;
73863;SDS011;62200;52.062;5.292;2022-08-19T02:12:33;3.88;;;2.88;;
73863;SDS011;62200;52.062;5.292;2022-08-19T02:14:58;5.13;;;3.30;;
73863;SDS011;62200;52.062;5.292;2022-08-19T02:17:24;7.35;;;3.40;;
73863;SDS011;62200;52.062;5.292;2022-08-19T02:19:50;5.60;;;3.40;;
73863;SDS011;62200;52.062;5.292;2022-08-19T02:22:15;5.57;;;3.17;;
73863;SDS011;62200;52.062;5.292;2022-08-19T02:24:40;6.50;;;3.63;;
73863;SDS011;62200;52.062;5.292;2022-08-19T02:27:06;4.60;;;3.05;;
73863;SDS011;62200;52.062;5.292;2022-08-19T02:29:31;3.38;;;2.55;;
73863;SDS011;62200;52.062;5.292;2022-08-19T02:31:57;4.25;;;3.17;;
73863;SDS011;62200;52.062;5.292;2022-08-19T02:34:22;5.45;;;3.45;;
73863;SDS011;62200;52.062;5.292;2022-08-19T02:36:49;5.03;;;3.17;;
73863;SDS011;62200;52.062;5.292;2022-08-19T02:39:14;5.50;;;3.63;;
73863;SDS011;62200;52.062;5.292;2022-08-19T02:41:40;4.10;;;3.27;;
73863;SDS011;62200;52.062;5.292;2022-08-19T02:44:05;4.47;;;3.05;;
73863;SDS011;62200;52.062;5.292;2022-08-19T02:46:32;4.28;;;3.20;;
73863;SDS011;62200;52.062;5.292;2022-08-19T02:48:59;8.02;;;2.88;;
73863;SDS011;62200;52.062;5.292;2022-08-19T02:51:29;4.82;;;3.10;;
73863;SDS011;62200;52.062;5.292;2022-08-19T02:53:56;4.07;;;2.72;;
73863;SDS011;62200;52.062;5.292;2022-08-19T02:56:22;6.80;;;3.38;;
73863;SDS011;62200;52.062;5.292;2022-08-19T02:58:49;5.32;;;2.65;;
73863;SDS011;62200;52.062;5.292;2022-08-19T03:01:24;5.13;;;3.75;;
73863;SDS011;62200;52.062;5.292;2022-08-19T03:03:50;6.57;;;3.63;;
73863;SDS011;62200;52.062;5.292;2022-08-19T03:06:15;4.72;;;3.35;;
73863;SDS011;62200;52.062;5.292;2022-08-19T03:08:43;5.88;;;3.70;;
73863;SDS011;62200;52.062;5.292;2022-08-19T03:11:20;6.10;;;3.58;;
73863;SDS011;62200;52.062;5.292;2022-08-19T03:13:56;5.43;;;3.33;;
73863;SDS011;62200;52.062;5.292;2022-08-19T03:16:22;5.55;;;3.08;;
73863;SDS011;62200;52.062;5.292;2022-08-19T03:18:50;4.53;;;3.20;;
73863;SDS011;62200;52.062;5.292;2022-08-19T03:21:17;5.72;;;3.22;;
73863;SDS011;62200;52.062;5.292;2022-08-19T03:23:44;6.28;;;4.13;;
73863;SDS011;62200;52.062;5.292;2022-08-19T03:26:09;5.30;;;3.50;;
73863;SDS011;62200;52.062;5.292;2022-08-19T03:28:35;6.93;;;3.75;;
73863;SDS011;62200;52.062;5.292;2022-08-19T03:31:03;5.50;;;4.00;;
73863;SDS011;62200;52.062;5.292;2022-08-19T03:33:34;8.15;;;4.10;;
73863;SDS011;62200;52.062;5.292;2022-08-19T03:36:01;7.18;;;3.55;;
73863;SDS011;62200;52.062;5.292;2022-08-19T03:38:26;5.35;;;3.75;;
73863;SDS011;62200;52.062;5.292;2022-08-19T03:40:52;6.55;;;3.83;;
73863;SDS011;62200;52.062;5.292;2022-08-19T03:43:17;5.05;;;3.22;;
73863;SDS011;62200;52.062;5.292;2022-08-19T03:45:43;5.43;;;3.33;;
73863;SDS011;62200;52.062;5.292;2022-08-19T03:48:08;7.23;;;3.93;;
73863;SDS011;62200;52.062;5.292;2022-08-19T03:50:38;5.72;;;3.00;;
73863;SDS011;62200;52.062;5.292;2022-08-19T03:53:04;6.30;;;4.10;;
73863;SDS011;62200;52.062;5.292;2022-08-19T03:55:29;6.25;;;3.92;;
73863;SDS011;62200;52.062;5.292;2022-08-19T03:57:55;6.88;;;3.30;;
73863;SDS011;62200;52.062;5.292;2022-08-19T04:00:20;6.28;;;3.33;;
73863;SDS011;62200;52.062;5.292;2022-08-19T04:02:46;5.70;;;3.83;;
73863;SDS011;62200;52.062;5.292;2022-08-19T04:05:11;8.68;;;3.95;;
73863;SDS011;62200;52.062;5.292;2022-08-19T04:07:38;6.03;;;3.35;;
73863;SDS011;62200;52.062;5.292;2022-08-19T04:10:04;7.40;;;3.50;;
73863;SDS011;62200;52.062;5.292;2022-08-19T04:12:30;6.15;;;3.13;;
73863;SDS011;62200;52.062;5.292;2022-08-19T04:14:55;6.13;;;3.65;;
73863;SDS011;62200;52.062;5.292;2022-08-19T04:17:20;6.93;;;3.83;;
73863;SDS011;62200;52.062;5.292;2022-08-19T04:19:47;7.47;;;4.03;;
73863;SDS011;62200;52.062;5.292;2022-08-19T04:22:12;7.17;;;3.67;;
73863;SDS011;62200;52.062;5.292;2022-08-19T04:24:37;8.38;;;4.32;;
73863;SDS011;62200;52.062;5.292;2022-08-19T04:27:03;7.03;;;3.95;;
73863;SDS011;62200;52.062;5.292;2022-08-19T04:29:30;5.68;;;4.03;;
73863;SDS011;62200;52.062;5.292;2022-08-19T04:31:56;7.55;;;4.43;;
73863;SDS011;62200;52.062;5.292;2022-08-19T04:34:23;7.05;;;4.03;;
73863;SDS011;62200;52.062;5.292;2022-08-19T04:36:50;8.05;;;4.32;;
73863;SDS011;62200;52.062;5.292;2022-08-19T04:39:18;8.23;;;4.05;;
73863;SDS011;62200;52.062;5.292;2022-08-19T04:41:48;8.75;;;5.22;;
73863;SDS011;62200;52.062;5.292;2022-08-19T04:44:32;9.07;;;5.40;;
73863;SDS011;62200;52.062;5.292;2022-08-19T04:47:00;9.38;;;4.30;;
73863;SDS011;62200;52.062;5.292;2022-08-19T04:49:25;10.20;;;5.68;;
73863;SDS011;62200;52.062;5.292;2022-08-19T04:51:51;7.63;;;4.05;;
73863;SDS011;62200;52.062;5.292;2022-08-19T04:54:19;7.75;;;4.47;;
73863;SDS011;62200;52.062;5.292;2022-08-19T04:56:47;8.05;;;4.68;;
73863;SDS011;62200;52.062;5.292;2022-08-19T04:59:14;8.75;;;5.25;;
73863;SDS011;62200;52.062;5.292;2022-08-19T05:01:42;8.88;;;4.88;;
73863;SDS011;62200;52.062;5.292;2022-08-19T05:04:08;9.88;;;5.20;;
73863;SDS011;62200;52.062;5.292;2022-08-19T05:06:34;9.90;;;5.45;;
73863;SDS011;62200;52.062;5.292;2022-08-19T05:09:01;12.05;;;5.80;;
73863;SDS011;62200;52.062;5.292;2022-08-19T05:11:32;12.40;;;6.35;;
73863;SDS011;62200;52.062;5.292;2022-08-19T05:14:00;9.93;;;6.25;;
73863;SDS011;62200;52.062;5.292;2022-08-19T05:16:26;10.88;;;5.82;;
73863;SDS011;62200;52.062;5.292;2022-08-19T05:18:52;13.18;;;6.72;;
73863;SDS011;62200;52.062;5.292;2022-08-19T05:21:37;14.48;;;7.05;;
73863;SDS011;62200;52.062;5.292;2022-08-19T05:24:23;11.45;;;7.95;;
73863;SDS011;62200;52.062;5.292;2022-08-19T05:26:50;15.70;;;7.20;;
73863;SDS011;62200;52.062;5.292;2022-08-19T05:29:17;12.98;;;7.15;;
73863;SDS011;62200;52.062;5.292;2022-08-19T05:31:44;11.77;;;6.57;;
73863;SDS011;62200;52.062;5.292;2022-08-19T05:34:11;13.45;;;7.28;;
73863;SDS011;62200;52.062;5.292;2022-08-19T05:36:38;13.95;;;7.53;;
73863;SDS011;62200;52.062;5.292;2022-08-19T05:39:06;13.55;;;7.53;;
73863;SDS011;62200;52.062;5.292;2022-08-19T05:41:37;10.23;;;6.60;;
73863;SDS011;62200;52.062;5.292;2022-08-19T05:44:06;13.85;;;7.05;;
73863;SDS011;62200;52.062;5.292;2022-08-19T05:46:34;16.30;;;7.95;;
73863;SDS011;62200;52.062;5.292;2022-08-19T05:49:00;9.82;;;6.35;;
73863;SDS011;62200;52.062;5.292;2022-08-19T05:51:25;9.85;;;6.15;;
73863;SDS011;62200;52.062;5.292;2022-08-19T05:53:51;11.23;;;6.50;;
73863;SDS011;62200;52.062;5.292;2022-08-19T05:56:17;13.77;;;6.45;;
73863;SDS011;62200;52.062;5.292;2022-08-19T05:58:43;11.80;;;6.05;;
73863;SDS011;62200;52.062;5.292;2022-08-19T06:01:11;11.40;;;6.88;;
73863;SDS011;62200;52.062;5.292;2022-08-19T06:03:38;12.48;;;6.63;;
73863;SDS011;62200;52.062;5.292;2022-08-19T06:06:04;12.80;;;7.13;;
73863;SDS011;62200;52.062;5.292;2022-08-19T06:08:32;12.88;;;6.78;;
73863;SDS011;62200;52.062;5.292;2022-08-19T06:10:58;13.15;;;7.20;;
73863;SDS011;62200;52.062;5.292;2022-08-19T06:13:56;17.02;;;7.57;;
73863;SDS011;62200;52.062;5.292;2022-08-19T06:16:22;14.13;;;8.55;;
73863;SDS011;62200;52.062;5.292;2022-08-19T06:18:54;16.17;;;8.57;;
73863;SDS011;62200;52.062;5.292;2022-08-19T06:21:22;22.60;;;10.52;;
73863;SDS011;62200;52.062;5.292;2022-08-19T06:23:49;33.55;;;16.10;;
73863;SDS011;62200;52.062;5.292;2022-08-19T06:26:16;41.95;;;19.70;;
73863;SDS011;62200;52.062;5.292;2022-08-19T06:28:43;59.05;;;22.77;;
73863;SDS011;62200;52.062;5.292;2022-08-19T06:31:11;46.50;;;22.13;;
73863;SDS011;62200;52.062;5.292;2022-08-19T06:33:39;58.53;;;23.67;;
73863;SDS011;62200;52.062;5.292;2022-08-19T06:36:04;54.38;;;23.73;;
73863;SDS011;62200;52.062;5.292;2022-08-19T06:38:30;52.25;;;23.90;;
73863;SDS011;62200;52.062;5.292;2022-08-19T06:41:00;58.75;;;25.38;;
73863;SDS011;62200;52.062;5.292;2022-08-19T06:43:29;61.50;;;25.17;;
73863;SDS011;62200;52.062;5.292;2022-08-19T06:45:54;52.45;;;23.15;;
73863;SDS011;62200;52.062;5.292;2022-08-19T06:48:19;55.85;;;26.77;;
73863;SDS011;62200;52.062;5.292;2022-08-19T06:50:45;62.72;;;28.25;;
73863;SDS011;62200;52.062;5.292;2022-08-19T06:53:10;73.93;;;32.70;;
73863;SDS011;62200;52.062;5.292;2022-08-19T06:55:35;76.43;;;32.60;;
73863;SDS011;62200;52.062;5.292;2022-08-19T06:58:03;77.47;;;32.95;;
73863;SDS011;62200;52.062;5.292;2022-08-19T07:00:29;81.03;;;34.75;;
73863;SDS011;62200;52.062;5.292;2022-08-19T07:02:54;72.50;;;32.13;;
73863;SDS011;62200;52.062;5.292;2022-08-19T07:05:20;73.70;;;31.85;;
73863;SDS011;62200;52.062;5.292;2022-08-19T07:07:46;69.38;;;32.28;;
73863;SDS011;62200;52.062;5.292;2022-08-19T07:10:11;69.45;;;31.40;;
73863;SDS011;62200;52.062;5.292;2022-08-19T07:12:36;68.40;;;30.75;;
73863;SDS011;62200;52.062;5.292;2022-08-19T07:15:05;63.15;;;30.10;;
73863;SDS011;62200;52.062;5.292;2022-08-19T07:17:33;66.40;;;28.95;;
73863;SDS011;62200;52.062;5.292;2022-08-19T07:20:02;63.55;;;29.75;;
73863;SDS011;62200;52.062;5.292;2022-08-19T07:22:28;62.65;;;29.95;;
73863;SDS011;62200;52.062;5.292;2022-08-19T07:24:53;52.75;;;28.05;;
73863;SDS011;62200;52.062;5.292;2022-08-19T07:27:19;55.15;;;26.70;;
73863;SDS011;62200;52.062;5.292;2022-08-19T07:29:44;51.15;;;24.30;;
73863;SDS011;62200;52.062;5.292;2022-08-19T07:32:10;51.50;;;25.10;;
73863;SDS011;62200;52.062;5.292;2022-08-19T07:34:36;46.28;;;25.70;;
73863;SDS011;62200;52.062;5.292;2022-08-19T07:37:03;49.83;;;24.73;;
73863;SDS011;62200;52.062;5.292;2022-08-19T07:39:30;45.17;;;23.73;;
73863;SDS011;62200;52.062;5.292;2022-08-19T07:41:57;44.97;;;22.77;;
73863;SDS011;62200;52.062;5.292;2022-08-19T07:44:25;46.58;;;23.85;;
73863;SDS011;62200;52.062;5.292;2022-08-19T07:46:51;46.05;;;23.38;;
73863;SDS011;62200;52.062;5.292;2022-08-19T07:49:19;45.20;;;22.70;;
73863;SDS011;62200;52.062;5.292;2022-08-19T07:51:56;43.60;;;21.73;;
73863;SDS011;62200;52.062;5.292;2022-08-19T07:54:24;46.40;;;22.38;;
73863;SDS011;62200;52.062;5.292;2022-08-19T07:56:51;42.13;;;22.58;;
73863;SDS011;62200;52.062;5.292;2022-08-19T07:59:17;42.63;;;21.45;;
73863;SDS011;62200;52.062;5.292;2022-08-19T08:01:45;43.05;;;22.08;;
73863;SDS011;62200;52.062;5.292;2022-08-19T08:04:11;43.47;;;22.27;;
73863;SDS011;62200;52.062;5.292;2022-08-19T08:06:55;40.03;;;20.70;;
73863;SDS011;62200;52.062;5.292;2022-08-19T08:09:40;36.55;;;20.02;;
73863;SDS011;62200;52.062;5.292;2022-08-19T08:12:08;38.97;;;20.58;;
73863;SDS011;62200;52.062;5.292;2022-08-19T08:14:46;39.20;;;20.98;;
73863;SDS011;62200;52.062;5.292;2022-08-19T08:17:15;38.67;;;20.20;;
73863;SDS011;62200;52.062;5.292;2022-08-19T08:19:43;42.08;;;18.92;;
73863;SDS011;62200;52.062;5.292;2022-08-19T08:22:10;34.83;;;19.02;;
73863;SDS011;62200;52.062;5.292;2022-08-19T08:25:00;34.58;;;18.33;;
73863;SDS011;62200;52.062;5.292;2022-08-19T08:27:37;29.17;;;18.27;;
73863;SDS011;62200;52.062;5.292;2022-08-19T08:30:10;33.20;;;18.45;;
73863;SDS011;62200;52.062;5.292;2022-08-19T08:32:42;33.58;;;18.45;;
73863;SDS011;62200;52.062;5.292;2022-08-19T08:35:10;37.95;;;18.08;;
73863;SDS011;62200;52.062;5.292;2022-08-19T08:37:38;33.45;;;18.13;;
73863;SDS011;62200;52.062;5.292;2022-08-19T08:40:05;33.50;;;19.25;;
73863;SDS011;62200;52.062;5.292;2022-08-19T08:42:45;30.58;;;17.77;;
73863;SDS011;62200;52.062;5.292;2022-08-19T08:45:25;32.22;;;18.33;;
73863;SDS011;62200;52.062;5.292;2022-08-19T08:47:52;32.92;;;17.83;;
73863;SDS011;62200;52.062;5.292;2022-08-19T08:50:21;28.95;;;17.98;;
73863;SDS011;62200;52.062;5.292;2022-08-19T08:52:55;29.80;;;16.60;;
73863;SDS011;62200;52.062;5.292;2022-08-19T08:55:23;33.42;;;17.88;;
73863;SDS011;62200;52.062;5.292;2022-08-19T08:57:52;31.23;;;18.15;;
73863;SDS011;62200;52.062;5.292;2022-08-19T09:00:26;39.28;;;19.17;;
73863;SDS011;62200;52.062;5.292;2022-08-19T09:02:55;27.23;;;15.85;;
73863;SDS011;62200;52.062;5.292;2022-08-19T09:05:23;30.55;;;16.63;;
73863;SDS011;62200;52.062;5.292;2022-08-19T09:07:58;29.45;;;17.33;;
73863;SDS011;62200;52.062;5.292;2022-08-19T09:16:27;22.30;;;13.40;;
73863;SDS011;62200;52.062;5.292;2022-08-19T09:19:05;20.60;;;14.43;;
73863;SDS011;62200;52.062;5.292;2022-08-19T09:21:32;23.35;;;15.02;;
73863;SDS011;62200;52.062;5.292;2022-08-19T09:23:59;25.73;;;14.98;;
73863;SDS011;62200;52.062;5.292;2022-08-19T09:26:28;27.38;;;15.20;;
73863;SDS011;62200;52.062;5.292;2022-08-19T09:28:54;25.55;;;15.60;;
73863;SDS011;62200;52.062;5.292;2022-08-19T09:31:23;21.83;;;14.35;;
73863;SDS011;62200;52.062;5.292;2022-08-19T09:36:17;25.30;;;15.05;;
73863;SDS011;62200;52.062;5.292;2022-08-19T09:38:45;23.20;;;15.73;;
73863;SDS011;62200;52.062;5.292;2022-08-19T09:41:16;23.83;;;16.90;;
73863;SDS011;62200;52.062;5.292;2022-08-19T09:43:45;28.45;;;14.75;;
73863;SDS011;62200;52.062;5.292;2022-08-19T09:46:12;25.70;;;16.60;;
73863;SDS011;62200;52.062;5.292;2022-08-19T09:48:38;25.15;;;15.73;;
73863;SDS011;62200;52.062;5.292;2022-08-19T09:51:07;31.85;;;16.98;;
73863;SDS011;62200;52.062;5.292;2022-08-19T09:53:40;31.85;;;18.08;;
73863;SDS011;62200;52.062;5.292;2022-08-19T09:56:07;27.45;;;15.70;;
73863;SDS011;62200;52.062;5.292;2022-08-19T09:58:33;27.10;;;17.80;;
73863;SDS011;62200;52.062;5.292;2022-08-19T10:01:00;24.27;;;15.27;;
73863;SDS011;62200;52.062;5.292;2022-08-19T10:03:26;23.35;;;16.55;;
73863;SDS011;62200;52.062;5.292;2022-08-19T10:05:53;27.60;;;18.35;;
73863;SDS011;62200;52.062;5.292;2022-08-19T10:08:37;28.95;;;18.20;;
73863;SDS011;62200;52.062;5.292;2022-08-19T10:11:04;30.30;;;20.17;;
73863;SDS011;62200;52.062;5.292;2022-08-19T10:13:31;29.83;;;19.55;;
73863;SDS011;62200;52.062;5.292;2022-08-19T10:16:04;32.83;;;20.58;;
73863;SDS011;62200;52.062;5.292;2022-08-19T10:18:31;35.25;;;21.38;;
73863;SDS011;62200;52.062;5.292;2022-08-19T10:21:08;30.58;;;20.85;;
73863;SDS011;62200;52.062;5.292;2022-08-19T10:23:46;30.52;;;21.17;;
73863;SDS011;62200;52.062;5.292;2022-08-19T10:26:14;36.47;;;21.95;;
73863;SDS011;62200;52.062;5.292;2022-08-19T10:28:42;33.42;;;21.85;;
73863;SDS011;62200;52.062;5.292;2022-08-19T10:31:13;35.28;;;22.38;;
73863;SDS011;62200;52.062;5.292;2022-08-19T10:33:42;33.75;;;23.15;;
73863;SDS011;62200;52.062;5.292;2022-08-19T10:36:10;35.20;;;24.73;;
73863;SDS011;62200;52.062;5.292;2022-08-19T10:38:40;38.33;;;23.40;;
73863;SDS011;62200;52.062;5.292;2022-08-19T10:41:06;40.85;;;22.88;;
73863;SDS011;62200;52.062;5.292;2022-08-19T10:43:33;36.30;;;22.73;;
73863;SDS011;62200;52.062;5.292;2022-08-19T10:46:01;40.83;;;24.83;;
73863;SDS011;62200;52.062;5.292;2022-08-19T10:48:27;40.40;;;23.63;;
73863;SDS011;62200;52.062;5.292;2022-08-19T10:50:52;33.35;;;23.00;;
73863;SDS011;62200;52.062;5.292;2022-08-19T10:53:36;35.90;;;23.73;;
73863;SDS011;62200;52.062;5.292;2022-08-19T10:56:02;35.55;;;23.40;;
73863;SDS011;62200;52.062;5.292;2022-08-19T10:58:46;36.65;;;23.20;;
73863;SDS011;62200;52.062;5.292;2022-08-19T11:01:13;36.58;;;24.02;;
73863;SDS011;62200;52.062;5.292;2022-08-19T11:03:39;36.95;;;21.15;;
73863;SDS011;62200;52.062;5.292;2022-08-19T11:06:05;39.00;;;23.58;;
73863;SDS011;62200;52.062;5.292;2022-08-19T11:08:33;34.17;;;23.27;;
73863;SDS011;62200;52.062;5.292;2022-08-19T11:11:02;34.65;;;20.95;;
73863;SDS011;62200;52.062;5.292;2022-08-19T11:13:33;31.38;;;21.67;;
73863;SDS011;62200;52.062;5.292;2022-08-19T11:16:06;37.85;;;22.60;;
73863;SDS011;62200;52.062;5.292;2022-08-19T11:18:38;37.47;;;23.70;;
73863;SDS011;62200;52.062;5.292;2022-08-19T11:21:06;40.00;;;23.25;;
73863;SDS011;62200;52.062;5.292;2022-08-19T11:23:33;37.33;;;23.35;;
73863;SDS011;62200;52.062;5.292;2022-08-19T11:25:59;36.05;;;23.70;;
73863;SDS011;62200;52.062;5.292;2022-08-19T11:28:26;32.80;;;24.15;;
73863;SDS011;62200;52.062;5.292;2022-08-19T11:30:51;37.20;;;22.88;;
73863;SDS011;62200;52.062;5.292;2022-08-19T11:33:19;34.25;;;22.85;;
73863;SDS011;62200;52.062;5.292;2022-08-19T11:35:44;36.00;;;22.55;;
73863;SDS011;62200;52.062;5.292;2022-08-19T11:38:09;37.38;;;24.15;;
73863;SDS011;62200;52.062;5.292;2022-08-19T11:40:36;33.00;;;22.30;;
73863;SDS011;62200;52.062;5.292;2022-08-19T11:43:01;33.70;;;22.73;;
73863;SDS011;62200;52.062;5.292;2022-08-19T11:45:27;36.90;;;27.30;;
73863;SDS011;62200;52.062;5.292;2022-08-19T11:47:53;34.58;;;23.52;;
73863;SDS011;62200;52.062;5.292;2022-08-19T11:50:19;34.53;;;25.30;;
73863;SDS011;62200;52.062;5.292;2022-08-19T11:52:46;33.47;;;23.13;;
73863;SDS011;62200;52.062;5.292;2022-08-19T11:55:12;31.42;;;22.70;;
73863;SDS011;62200;52.062;5.292;2022-08-19T11:57:38;27.88;;;21.20;;
73863;SDS011;62200;52.062;5.292;2022-08-19T12:00:06;30.67;;;22.65;;
73863;SDS011;62200;52.062;5.292;2022-08-19T12:02:32;29.65;;;21.65;;
73863;SDS011;62200;52.062;5.292;2022-08-19T12:04:58;28.20;;;21.63;;
73863;SDS011;62200;52.062;5.292;2022-08-19T12:07:23;28.30;;;20.88;;
73863;SDS011;62200;52.062;5.292;2022-08-19T12:09:49;28.00;;;21.52;;
73863;SDS011;62200;52.062;5.292;2022-08-19T12:12:15;29.60;;;21.70;;
73863;SDS011;62200;52.062;5.292;2022-08-19T12:14:41;28.95;;;20.52;;
73863;SDS011;62200;52.062;5.292;2022-08-19T12:17:06;27.92;;;19.83;;
73863;SDS011;62200;52.062;5.292;2022-08-19T12:19:35;23.75;;;17.80;;
73863;SDS011;62200;52.062;5.292;2022-08-19T12:22:01;21.90;;;17.95;;
73863;SDS011;62200;52.062;5.292;2022-08-19T12:24:30;24.95;;;16.92;;
73863;SDS011;62200;52.062;5.292;2022-08-19T12:26:57;21.23;;;15.95;;
73863;SDS011;62200;52.062;5.292;2022-08-19T12:29:24;21.05;;;15.30;;
73863;SDS011;62200;52.062;5.292;2022-08-19T12:31:54;22.25;;;16.13;;
73863;SDS011;62200;52.062;5.292;2022-08-19T12:34:26;23.73;;;15.68;;
73863;SDS011;62200;52.062;5.292;2022-08-19T12:36:55;26.23;;;17.95;;
73863;SDS011;62200;52.062;5.292;2022-08-19T12:39:24;18.00;;;13.15;;
73863;SDS011;62200;52.062;5.292;2022-08-19T12:41:50;18.55;;;14.13;;
73863;SDS011;62200;52.062;5.292;2022-08-19T12:44:16;19.95;;;12.77;;
73863;SDS011;62200;52.062;5.292;2022-08-19T12:46:41;22.85;;;12.65;;
73863;SDS011;62200;52.062;5.292;2022-08-19T12:49:07;14.68;;;10.02;;
73863;SDS011;62200;52.062;5.292;2022-08-19T12:51:32;14.80;;;9.02;;
73863;SDS011;62200;52.062;5.292;2022-08-19T12:53:58;17.13;;;10.32;;
73863;SDS011;62200;52.062;5.292;2022-08-19T12:56:23;15.10;;;9.82;;
73863;SDS011;62200;52.062;5.292;2022-08-19T12:58:49;13.07;;;7.93;;
73863;SDS011;62200;52.062;5.292;2022-08-19T13:01:15;10.70;;;8.07;;
73863;SDS011;62200;52.062;5.292;2022-08-19T13:03:42;15.15;;;10.02;;
73863;SDS011;62200;52.062;5.292;2022-08-19T13:06:09;10.23;;;7.82;;
73863;SDS011;62200;52.062;5.292;2022-08-19T13:08:35;10.75;;;8.15;;
73863;SDS011;62200;52.062;5.292;2022-08-19T13:11:11;12.15;;;7.63;;
73863;SDS011;62200;52.062;5.292;2022-08-19T13:13:40;18.55;;;9.93;;
73863;SDS011;62200;52.062;5.292;2022-08-19T13:16:07;14.85;;;9.90;;
73863;SDS011;62200;52.062;5.292;2022-08-19T13:18:37;12.45;;;10.15;;
73863;SDS011;62200;52.062;5.292;2022-08-19T13:21:04;16.25;;;10.55;;
73863;SDS011;62200;52.062;5.292;2022-08-19T13:23:31;16.40;;;10.88;;
73863;SDS011;62200;52.062;5.292;2022-08-19T13:25:58;14.70;;;10.00;;
73863;SDS011;62200;52.062;5.292;2022-08-19T13:28:25;14.68;;;9.38;;
73863;SDS011;62200;52.062;5.292;2022-08-19T13:30:50;12.50;;;8.88;;
73863;SDS011;62200;52.062;5.292;2022-08-19T13:33:34;10.95;;;8.63;;
73863;SDS011;62200;52.062;5.292;2022-08-19T13:36:00;10.75;;;7.78;;
73863;SDS011;62200;52.062;5.292;2022-08-19T13:38:26;12.75;;;7.45;;
73863;SDS011;62200;52.062;5.292;2022-08-19T13:40:53;10.50;;;7.20;;
73863;SDS011;62200;52.062;5.292;2022-08-19T13:43:20;12.00;;;7.82;;
73863;SDS011;62200;52.062;5.292;2022-08-19T13:45:51;13.25;;;8.57;;
73863;SDS011;62200;52.062;5.292;2022-08-19T13:48:20;8.60;;;6.88;;
73863;SDS011;62200;52.062;5.292;2022-08-19T13:50:46;12.48;;;8.35;;
73863;SDS011;62200;52.062;5.292;2022-08-19T13:53:13;10.32;;;7.05;;
73863;SDS011;62200;52.062;5.292;2022-08-19T13:55:41;9.07;;;6.97;;
73863;SDS011;62200;52.062;5.292;2022-08-19T13:58:08;10.02;;;7.15;;
73863;SDS011;62200;52.062;5.292;2022-08-19T14:00:44;8.82;;;6.95;;
73863;SDS011;62200;52.062;5.292;2022-08-19T14:03:10;8.43;;;6.55;;
73863;SDS011;62200;52.062;5.292;2022-08-19T14:05:36;8.50;;;6.70;;
73863;SDS011;62200;52.062;5.292;2022-08-19T14:08:02;10.45;;;6.88;;
73863;SDS011;62200;52.062;5.292;2022-08-19T14:10:28;10.60;;;7.47;;
73863;SDS011;62200;52.062;5.292;2022-08-19T14:12:56;10.68;;;7.43;;
73863;SDS011;62200;52.062;5.292;2022-08-19T14:15:23;8.50;;;6.75;;
73863;SDS011;62200;52.062;5.292;2022-08-19T14:17:49;11.30;;;7.07;;
73863;SDS011;62200;52.062;5.292;2022-08-19T14:20:15;9.10;;;6.97;;
73863;SDS011;62200;52.062;5.292;2022-08-19T14:22:41;7.30;;;6.05;;
73863;SDS011;62200;52.062;5.292;2022-08-19T14:25:09;7.95;;;6.38;;
73863;SDS011;62200;52.062;5.292;2022-08-19T14:27:38;8.75;;;6.43;;
73863;SDS011;62200;52.062;5.292;2022-08-19T14:30:06;6.25;;;5.40;;
73863;SDS011;62200;52.062;5.292;2022-08-19T14:32:33;7.65;;;5.32;;
73863;SDS011;62200;52.062;5.292;2022-08-19T14:34:59;6.63;;;4.65;;
73863;SDS011;62200;52.062;5.292;2022-08-19T14:37:25;6.65;;;5.05;;
73863;SDS011;62200;52.062;5.292;2022-08-19T14:39:50;5.43;;;4.82;;
73863;SDS011;62200;52.062;5.292;2022-08-19T14:42:15;6.03;;;5.35;;
73863;SDS011;62200;52.062;5.292;2022-08-19T14:44:41;7.18;;;5.40;;
73863;SDS011;62200;52.062;5.292;2022-08-19T14:47:07;6.80;;;5.80;;